Breeze Hill, South Carolina
Current Conditions -  °F | °C
As of 3:53 AM on Thursday 27 Nov 2014 (Local Time) from KDNL Reporting Station
Clear Clear  
Wind Chill: 43°   Ceiling: Unl
Heat Index: 47°   Visibility: 10mi
Dew Point: 32°   Wind: 8mph
Humidity: 56%   Direction: 250°WSW
Pressure: 30.07"   Gusts: NA
Location:  33.5159°N, 81.8379°W
Report Text: KDNL 270853Z AUTO 25007KT 10SM CLR 08/00 A3007 RMK AO2 SLP181 T00830000 55005
Loading
Personal Weather Stations






























Interactive Weather Map New forecast layout! Learn more

10-Day Weather Forecast

Advertisements
Track Severe Weather on mobile